sensor_id;sensor_type;location;lat;lon;timestamp;pressure;altitude;pressure_sealevel;temperature;humidity
20455;BME280;10386;54.314;10.022;2023-02-12T00:01:31;102307.38;;;7.62;100.00
20455;BME280;10386;54.314;10.022;2023-02-12T00:03:58;102316.53;;;7.58;100.00
20455;BME280;10386;54.314;10.022;2023-02-12T00:06:25;102317.41;;;7.59;100.00
20455;BME280;10386;54.314;10.022;2023-02-12T00:08:53;102312.34;;;7.50;100.00
20455;BME280;10386;54.314;10.022;2023-02-12T00:11:25;102326.72;;;7.50;100.00
20455;BME280;10386;54.314;10.022;2023-02-12T00:13:54;102334.94;;;7.47;100.00
20455;BME280;10386;54.314;10.022;2023-02-12T00:16:24;102333.16;;;7.46;100.00
20455;BME280;10386;54.314;10.022;2023-02-12T00:18:53;102354.78;;;7.46;100.00
20455;BME280;10386;54.314;10.022;2023-02-12T00:21:21;102334.19;;;7.44;100.00
20455;BME280;10386;54.314;10.022;2023-02-12T00:23:48;102332.91;;;7.54;100.00
20455;BME280;10386;54.314;10.022;2023-02-12T00:26:17;102280.06;;;7.45;100.00
20455;BME280;10386;54.314;10.022;2023-02-12T00:28:44;102279.81;;;7.53;100.00
20455;BME280;10386;54.314;10.022;2023-02-12T00:31:15;102286.31;;;7.47;100.00
20455;BME280;10386;54.314;10.022;2023-02-12T00:33:43;102286.31;;;7.47;100.00
20455;BME280;10386;54.314;10.022;2023-02-12T00:36:15;102286.25;;;7.49;100.00
20455;BME280;10386;54.314;10.022;2023-02-12T00:38:42;102293.25;;;7.54;100.00
20455;BME280;10386;54.314;10.022;2023-02-12T00:41:09;102269.22;;;7.47;100.00
20455;BME280;10386;54.314;10.022;2023-02-12T00:43:36;102263.53;;;7.54;100.00
20455;BME280;10386;54.314;10.022;2023-02-12T00:46:03;102265.25;;;7.57;100.00
20455;BME280;10386;54.314;10.022;2023-02-12T00:48:32;102267.16;;;7.53;100.00
20455;BME280;10386;54.314;10.022;2023-02-12T00:50:59;102256.53;;;7.49;100.00
20455;BME280;10386;54.314;10.022;2023-02-12T00:53:25;102259.25;;;7.49;100.00
20455;BME280;10386;54.314;10.022;2023-02-12T00:55:52;102265.34;;;7.54;100.00
20455;BME280;10386;54.314;10.022;2023-02-12T00:58:20;102260.09;;;7.49;100.00
20455;BME280;10386;54.314;10.022;2023-02-12T01:00:47;102262.69;;;7.52;100.00
20455;BME280;10386;54.314;10.022;2023-02-12T01:03:14;102258.78;;;7.61;100.00
20455;BME280;10386;54.314;10.022;2023-02-12T01:05:41;102268.00;;;7.55;100.00
20455;BME280;10386;54.314;10.022;2023-02-12T01:08:11;102268.22;;;7.49;100.00
20455;BME280;10386;54.314;10.022;2023-02-12T01:10:39;102267.06;;;7.56;100.00
20455;BME280;10386;54.314;10.022;2023-02-12T01:13:06;102274.44;;;7.51;100.00
20455;BME280;10386;54.314;10.022;2023-02-12T01:15:32;102279.63;;;7.57;100.00
20455;BME280;10386;54.314;10.022;2023-02-12T01:17:59;102275.16;;;7.56;100.00
20455;BME280;10386;54.314;10.022;2023-02-12T01:20:26;102276.78;;;7.62;100.00
20455;BME280;10386;54.314;10.022;2023-02-12T01:22:53;102277.63;;;7.62;100.00
20455;BME280;10386;54.314;10.022;2023-02-12T01:25:19;102281.25;;;7.63;100.00
20455;BME280;10386;54.314;10.022;2023-02-12T01:27:47;102275.75;;;7.64;100.00
20455;BME280;10386;54.314;10.022;2023-02-12T01:30:14;102278.66;;;7.60;100.00
20455;BME280;10386;54.314;10.022;2023-02-12T01:32:41;102268.88;;;7.56;100.00
20455;BME280;10386;54.314;10.022;2023-02-12T01:35:09;102280.66;;;7.53;100.00
20455;BME280;10386;54.314;10.022;2023-02-12T01:37:36;102268.94;;;7.54;100.00
20455;BME280;10386;54.314;10.022;2023-02-12T01:40:04;102283.16;;;7.59;100.00
20455;BME280;10386;54.314;10.022;2023-02-12T01:42:33;102282.41;;;7.56;100.00
20455;BME280;10386;54.314;10.022;2023-02-12T01:47:40;102272.34;;;7.59;100.00
20455;BME280;10386;54.314;10.022;2023-02-12T01:50:11;102273.34;;;7.57;100.00
20455;BME280;10386;54.314;10.022;2023-02-12T01:52:42;102279.63;;;7.57;100.00
20455;BME280;10386;54.314;10.022;2023-02-12T01:55:09;102284.09;;;7.58;100.00
20455;BME280;10386;54.314;10.022;2023-02-12T01:57:40;102260.59;;;7.60;100.00
20455;BME280;10386;54.314;10.022;2023-02-12T02:00:12;102256.09;;;7.61;100.00
20455;BME280;10386;54.314;10.022;2023-02-12T02:02:42;102244.38;;;7.60;100.00
20455;BME280;10386;54.314;10.022;2023-02-12T02:05:12;102254.53;;;7.54;100.00
20455;BME280;10386;54.314;10.022;2023-02-12T02:07:42;102252.59;;;7.57;100.00
20455;BME280;10386;54.314;10.022;2023-02-12T02:10:09;102257.13;;;7.57;100.00
20455;BME280;10386;54.314;10.022;2023-02-12T02:12:37;102260.81;;;7.54;100.00
20455;BME280;10386;54.314;10.022;2023-02-12T02:15:25;102259.16;;;7.50;100.00
20455;BME280;10386;54.314;10.022;2023-02-12T02:18:00;102260.19;;;7.48;100.00
20455;BME280;10386;54.314;10.022;2023-02-12T02:33:54;102260.44;;;7.65;100.00
20455;BME280;10386;54.314;10.022;2023-02-12T02:39:36;102250.94;;;7.53;100.00
20455;BME280;10386;54.314;10.022;2023-02-12T02:42:07;102254.31;;;7.60;100.00
20455;BME280;10386;54.314;10.022;2023-02-12T02:44:58;102248.97;;;7.58;100.00
20455;BME280;10386;54.314;10.022;2023-02-12T02:47:52;102250.19;;;7.50;100.00
20455;BME280;10386;54.314;10.022;2023-02-12T02:50:22;102246.13;;;7.61;100.00
20455;BME280;10386;54.314;10.022;2023-02-12T02:53:01;102242.56;;;7.61;100.00
20455;BME280;10386;54.314;10.022;2023-02-12T02:55:36;102237.66;;;7.47;100.00
20455;BME280;10386;54.314;10.022;2023-02-12T02:58:30;102243.78;;;7.52;100.00
20455;BME280;10386;54.314;10.022;2023-02-12T03:01:08;102247.50;;;7.50;100.00
20455;BME280;10386;54.314;10.022;2023-02-12T03:06:08;102243.97;;;7.48;100.00
20455;BME280;10386;54.314;10.022;2023-02-12T03:08:46;102249.47;;;7.45;100.00
20455;BME280;10386;54.314;10.022;2023-02-12T03:13:52;102241.41;;;7.43;100.00
20455;BME280;10386;54.314;10.022;2023-02-12T03:16:33;102248.69;;;7.41;100.00
20455;BME280;10386;54.314;10.022;2023-02-12T03:19:03;102243.75;;;7.54;100.00
20455;BME280;10386;54.314;10.022;2023-02-12T03:21:38;102251.13;;;7.49;100.00
20455;BME280;10386;54.314;10.022;2023-02-12T03:24:13;102254.69;;;7.49;100.00
20455;BME280;10386;54.314;10.022;2023-02-12T03:26:47;102241.88;;;7.56;100.00
20455;BME280;10386;54.314;10.022;2023-02-12T03:29:16;102242.94;;;7.50;100.00
20455;BME280;10386;54.314;10.022;2023-02-12T03:32:12;102242.94;;;7.50;100.00
20455;BME280;10386;54.314;10.022;2023-02-12T03:35:23;102236.69;;;7.50;100.00
20455;BME280;10386;54.314;10.022;2023-02-12T03:40:51;102241.19;;;7.49;100.00
20455;BME280;10386;54.314;10.022;2023-02-12T03:43:24;102240.00;;;7.58;100.00
20455;BME280;10386;54.314;10.022;2023-02-12T03:45:58;102238.22;;;7.57;100.00
20455;BME280;10386;54.314;10.022;2023-02-12T03:48:32;102238.44;;;7.51;100.00
20455;BME280;10386;54.314;10.022;2023-02-12T03:51:08;102237.44;;;7.53;100.00
20455;BME280;10386;54.314;10.022;2023-02-12T03:53:37;102239.31;;;7.51;100.00
20455;BME280;10386;54.314;10.022;2023-02-12T03:56:08;102244.00;;;7.46;100.00
20455;BME280;10386;54.314;10.022;2023-02-12T03:58:37;102244.19;;;7.42;100.00
20455;BME280;10386;54.314;10.022;2023-02-12T04:01:07;102245.00;;;7.44;100.00
20455;BME280;10386;54.314;10.022;2023-02-12T04:03:34;102253.16;;;7.42;100.00
20455;BME280;10386;54.314;10.022;2023-02-12T04:06:00;102245.06;;;7.42;100.00
20455;BME280;10386;54.314;10.022;2023-02-12T04:08:28;102254.31;;;7.35;100.00
20455;BME280;10386;54.314;10.022;2023-02-12T04:14:12;102250.06;;;7.28;100.00
20455;BME280;10386;54.314;10.022;2023-02-12T04:16:51;102247.25;;;7.31;100.00
20455;BME280;10386;54.314;10.022;2023-02-12T04:19:28;102253.56;;;7.32;100.00
20455;BME280;10386;54.314;10.022;2023-02-12T04:22:14;102256.41;;;7.27;100.00
20455;BME280;10386;54.314;10.022;2023-02-12T04:24:52;102268.09;;;7.28;100.00
20455;BME280;10386;54.314;10.022;2023-02-12T04:27:25;102262.72;;;7.28;100.00
20455;BME280;10386;54.314;10.022;2023-02-12T04:30:03;102264.63;;;7.24;100.00
20455;BME280;10386;54.314;10.022;2023-02-12T04:33:03;102264.63;;;7.24;100.00
20455;BME280;10386;54.314;10.022;2023-02-12T04:35:33;102262.72;;;7.28;100.00
20455;BME280;10386;54.314;10.022;2023-02-12T04:38:10;102262.63;;;7.29;100.00
20455;BME280;10386;54.314;10.022;2023-02-12T04:40:39;102266.28;;;7.28;100.00
20455;BME280;10386;54.314;10.022;2023-02-12T04:43:06;102276.31;;;7.25;100.00
20455;BME280;10386;54.314;10.022;2023-02-12T04:45:35;102277.44;;;7.18;100.00
20455;BME280;10386;54.314;10.022;2023-02-12T04:48:03;102289.25;;;7.15;100.00
20455;BME280;10386;54.314;10.022;2023-02-12T04:50:41;102285.81;;;7.10;100.00
20455;BME280;10386;54.314;10.022;2023-02-12T04:53:09;102284.06;;;7.09;100.00
20455;BME280;10386;54.314;10.022;2023-02-12T04:55:36;102297.34;;;7.15;100.00
20455;BME280;10386;54.314;10.022;2023-02-12T04:58:02;102301.00;;;7.13;100.00
20455;BME280;10386;54.314;10.022;2023-02-12T05:00:29;102298.31;;;7.13;100.00
20455;BME280;10386;54.314;10.022;2023-02-12T05:02:56;102300.66;;;6.97;100.00
20455;BME280;10386;54.314;10.022;2023-02-12T05:05:23;102310.47;;;7.00;100.00
20455;BME280;10386;54.314;10.022;2023-02-12T05:07:49;102304.13;;;7.01;100.00
20455;BME280;10386;54.314;10.022;2023-02-12T05:10:17;102310.25;;;7.06;100.00
20455;BME280;10386;54.314;10.022;2023-02-12T05:12:44;102305.88;;;7.03;100.00
20455;BME280;10386;54.314;10.022;2023-02-12T05:15:11;102303.81;;;7.10;100.00
20455;BME280;10386;54.314;10.022;2023-02-12T05:17:37;102309.31;;;7.07;100.00
20455;BME280;10386;54.314;10.022;2023-02-12T05:20:04;102307.63;;;7.04;100.00
20455;BME280;10386;54.314;10.022;2023-02-12T05:22:31;102304.09;;;7.02;100.00
20455;BME280;10386;54.314;10.022;2023-02-12T05:24:58;102305.88;;;7.03;100.00
20455;BME280;10386;54.314;10.022;2023-02-12T05:27:25;102311.94;;;7.10;100.00
20455;BME280;10386;54.314;10.022;2023-02-12T05:29:51;102312.94;;;7.07;100.00
20455;BME280;10386;54.314;10.022;2023-02-12T05:32:18;102307.53;;;7.07;100.00
20455;BME280;10386;54.314;10.022;2023-02-12T05:34:45;102310.22;;;7.07;100.00
20455;BME280;10386;54.314;10.022;2023-02-12T05:37:12;102304.66;;;7.12;100.00
20455;BME280;10386;54.314;10.022;2023-02-12T05:39:38;102311.81;;;7.13;100.00
20455;BME280;10386;54.314;10.022;2023-02-12T05:42:05;102314.69;;;7.08;100.00
20455;BME280;10386;54.314;10.022;2023-02-12T05:44:32;102316.47;;;7.09;100.00
20455;BME280;10386;54.314;10.022;2023-02-12T05:46:59;102310.16;;;7.09;100.00
20455;BME280;10386;54.314;10.022;2023-02-12T05:49:25;102319.09;;;7.11;100.00
20455;BME280;10386;54.314;10.022;2023-02-12T05:51:52;102314.53;;;7.13;100.00
20455;BME280;10386;54.314;10.022;2023-02-12T05:54:19;102317.28;;;7.11;100.00
20455;BME280;10386;54.314;10.022;2023-02-12T05:56:46;102320.84;;;7.12;100.00
20455;BME280;10386;54.314;10.022;2023-02-12T05:59:20;102324.38;;;7.14;100.00
20455;BME280;10386;54.314;10.022;2023-02-12T06:01:49;102324.38;;;7.14;100.00
20455;BME280;10386;54.314;10.022;2023-02-12T06:04:21;102323.56;;;7.12;100.00
20455;BME280;10386;54.314;10.022;2023-02-12T06:06:53;102328.03;;;7.13;100.00
20455;BME280;10386;54.314;10.022;2023-02-12T06:09:22;102322.69;;;7.11;100.00
20455;BME280;10386;54.314;10.022;2023-02-12T06:11:49;102347.88;;;7.12;100.00
20455;BME280;10386;54.314;10.022;2023-02-12T06:14:17;102305.34;;;7.18;100.00
20455;BME280;10386;54.314;10.022;2023-02-12T06:16:46;102265.81;;;7.16;100.00
20455;BME280;10386;54.314;10.022;2023-02-12T06:19:13;102258.50;;;7.19;100.00
20455;BME280;10386;54.314;10.022;2023-02-12T06:21:40;102246.88;;;7.17;100.00
20455;BME280;10386;54.314;10.022;2023-02-12T06:24:09;102246.75;;;7.20;100.00
20455;BME280;10386;54.314;10.022;2023-02-12T06:26:36;102231.41;;;7.21;100.00
20455;BME280;10386;54.314;10.022;2023-02-12T06:29:03;102234.19;;;7.19;100.00
20455;BME280;10386;54.314;10.022;2023-02-12T06:31:32;102228.63;;;7.24;100.00
20455;BME280;10386;54.314;10.022;2023-02-12T06:34:03;102224.94;;;7.26;100.00
20455;BME280;10386;54.314;10.022;2023-02-12T06:36:30;102225.75;;;7.28;100.00
20455;BME280;10386;54.314;10.022;2023-02-12T06:38:57;102230.28;;;7.28;100.00
20455;BME280;10386;54.314;10.022;2023-02-12T06:41:23;102231.00;;;7.33;100.00
20455;BME280;10386;54.314;10.022;2023-02-12T06:43:50;102232.69;;;7.35;100.00
20455;BME280;10386;54.314;10.022;2023-02-12T06:46:17;102234.56;;;7.33;100.00
20455;BME280;10386;54.314;10.022;2023-02-12T06:48:44;102232.81;;;7.32;100.00
20455;BME280;10386;54.314;10.022;2023-02-12T06:51:16;102240.69;;;7.38;100.00
20455;BME280;10386;54.314;10.022;2023-02-12T06:53:43;102247.22;;;7.33;100.00
20455;BME280;10386;54.314;10.022;2023-02-12T06:56:12;102254.31;;;7.35;100.00
20455;BME280;10386;54.314;10.022;2023-02-12T06:58:42;102239.84;;;7.38;100.00
20455;BME280;10386;54.314;10.022;2023-02-12T07:01:15;102245.06;;;7.42;100.00
20455;BME280;10386;54.314;10.022;2023-02-12T07:03:47;102255.97;;;7.39;100.00
20455;BME280;10386;54.314;10.022;2023-02-12T07:06:14;102256.97;;;7.37;100.00
20455;BME280;10386;54.314;10.022;2023-02-12T07:08:41;102260.44;;;7.40;100.00
20455;BME280;10386;54.314;10.022;2023-02-12T07:11:10;102246.22;;;7.35;100.00
20455;BME280;10386;54.314;10.022;2023-02-12T07:13:40;102252.41;;;7.39;100.00
20455;BME280;10386;54.314;10.022;2023-02-12T07:16:10;102246.00;;;7.41;100.00
20455;BME280;10386;54.314;10.022;2023-02-12T07:18:38;102246.00;;;7.41;100.00
20455;BME280;10386;54.314;10.022;2023-02-12T07:21:06;102244.13;;;7.43;100.00
20455;BME280;10386;54.314;10.022;2023-02-12T07:23:34;102244.31;;;7.39;100.00
20455;BME280;10386;54.314;10.022;2023-02-12T07:26:03;102244.31;;;7.39;100.00
20455;BME280;10386;54.314;10.022;2023-02-12T07:28:31;102246.78;;;7.45;100.00
20455;BME280;10386;54.314;10.022;2023-02-12T07:31:05;102241.41;;;7.43;100.00
20455;BME280;10386;54.314;10.022;2023-02-12T07:33:32;102244.06;;;7.45;100.00
20455;BME280;10386;54.314;10.022;2023-02-12T07:36:00;102231.38;;;7.47;100.00
20455;BME280;10386;54.314;10.022;2023-02-12T07:38:27;102237.53;;;7.50;100.00
20455;BME280;10386;54.314;10.022;2023-02-12T07:40:54;102240.22;;;7.52;100.00
20455;BME280;10386;54.314;10.022;2023-02-12T07:43:24;102248.59;;;7.44;100.00
20455;BME280;10386;54.314;10.022;2023-02-12T07:45:50;102248.44;;;7.49;100.00
20455;BME280;10386;54.314;10.022;2023-02-12T07:48:17;102246.56;;;7.51;100.00
20455;BME280;10386;54.314;10.022;2023-02-12T07:50:44;102248.34;;;7.50;100.00
20455;BME280;10386;54.314;10.022;2023-02-12T07:53:11;102248.34;;;7.50;100.00
20455;BME280;10386;54.314;10.022;2023-02-12T07:55:41;102253.66;;;7.53;100.00
20455;BME280;10386;54.314;10.022;2023-02-12T07:58:13;102252.50;;;7.60;100.00
20455;BME280;10386;54.314;10.022;2023-02-12T08:00:43;102253.31;;;7.62;100.00
20455;BME280;10386;54.314;10.022;2023-02-12T08:03:09;102254.13;;;7.64;100.00
20455;BME280;10386;54.314;10.022;2023-02-12T08:05:36;102242.41;;;7.65;100.00
20455;BME280;10386;54.314;10.022;2023-02-12T08:08:03;102251.28;;;7.69;100.00
20455;BME280;10386;54.314;10.022;2023-02-12T08:10:29;102241.19;;;7.74;100.00
20455;BME280;10386;54.314;10.022;2023-02-12T08:12:57;102239.91;;;7.84;100.00
20455;BME280;10386;54.314;10.022;2023-02-12T08:15:24;102239.97;;;7.82;100.00
20455;BME280;10386;54.314;10.022;2023-02-12T08:17:51;102236.44;;;7.80;100.00
20455;BME280;10386;54.314;10.022;2023-02-12T08:20:18;102237.06;;;7.87;100.00
20455;BME280;10386;54.314;10.022;2023-02-12T08:22:44;102237.06;;;7.87;100.00
20455;BME280;10386;54.314;10.022;2023-02-12T08:25:11;102234.91;;;7.96;100.00
20455;BME280;10386;54.314;10.022;2023-02-12T08:27:40;102234.22;;;7.91;100.00
20455;BME280;10386;54.314;10.022;2023-02-12T08:30:07;102229.75;;;7.90;100.00
20455;BME280;10386;54.314;10.022;2023-02-12T08:32:34;102224.25;;;7.92;100.00
20455;BME280;10386;54.314;10.022;2023-02-12T08:35:01;102233.03;;;7.98;100.00
20455;BME280;10386;54.314;10.022;2023-02-12T08:37:27;102231.97;;;8.02;100.00
20455;BME280;10386;54.314;10.022;2023-02-12T08:39:54;102224.72;;;8.03;100.00
20455;BME280;10386;54.314;10.022;2023-02-12T08:42:21;102228.09;;;8.09;100.00
20455;BME280;10386;54.314;10.022;2023-02-12T08:44:51;102223.47;;;8.13;100.00
20455;BME280;10386;54.314;10.022;2023-02-12T08:47:17;102225.09;;;8.17;100.00
20455;BME280;10386;54.314;10.022;2023-02-12T08:49:44;102223.13;;;8.22;100.00
20455;BME280;10386;54.314;10.022;2023-02-12T08:52:11;102224.78;;;8.25;100.00
20455;BME280;10386;54.314;10.022;2023-02-12T08:54:37;102224.41;;;8.34;100.00
20455;BME280;10386;54.314;10.022;2023-02-12T08:57:04;102221.88;;;8.30;100.00
20455;BME280;10386;54.314;10.022;2023-02-12T08:59:31;102215.13;;;8.40;100.00
20455;BME280;10386;54.314;10.022;2023-02-12T09:01:57;102221.25;;;8.45;100.00
20455;BME280;10386;54.314;10.022;2023-02-12T09:04:27;102216.47;;;8.51;100.00
20455;BME280;10386;54.314;10.022;2023-02-12T09:06:54;102220.81;;;8.55;100.00
20455;BME280;10386;54.314;10.022;2023-02-12T09:09:21;102235.91;;;8.39;100.00
20455;BME280;10386;54.314;10.022;2023-02-12T09:11:48;102232.84;;;8.48;100.00
20455;BME280;10386;54.314;10.022;2023-02-12T09:14:16;102232.97;;;8.67;100.00
20455;BME280;10386;54.314;10.022;2023-02-12T09:16:44;102244.53;;;8.49;100.00
20455;BME280;10386;54.314;10.022;2023-02-12T09:19:12;102259.94;;;8.47;100.00
20455;BME280;10386;54.314;10.022;2023-02-12T09:21:39;102262.38;;;8.54;100.00
20455;BME280;10386;54.314;10.022;2023-02-12T09:24:06;102264.53;;;8.45;100.00
20455;BME280;10386;54.314;10.022;2023-02-12T09:26:33;102263.59;;;8.46;100.00
20455;BME280;10386;54.314;10.022;2023-02-12T09:29:02;102267.72;;;8.56;100.00
20455;BME280;10386;54.314;10.022;2023-02-12T09:31:30;102269.94;;;8.68;100.00
20455;BME280;10386;54.314;10.022;2023-02-12T09:34:00;102266.53;;;8.63;100.00
20455;BME280;10386;54.314;10.022;2023-02-12T09:36:28;102266.34;;;8.67;100.00
20455;BME280;10386;54.314;10.022;2023-02-12T09:38:55;102271.69;;;8.69;100.00
20455;BME280;10386;54.314;10.022;2023-02-12T09:44:23;102274.84;;;8.80;100.00
20455;BME280;10386;54.314;10.022;2023-02-12T09:50:11;102278.63;;;8.76;100.00
20455;BME280;10386;54.314;10.022;2023-02-12T09:52:43;102280.84;;;8.88;100.00
20455;BME280;10386;54.314;10.022;2023-02-12T09:55:14;102277.91;;;8.92;100.00
20455;BME280;10386;54.314;10.022;2023-02-12T09:57:42;102289.25;;;8.80;100.00
20455;BME280;10386;54.314;10.022;2023-02-12T10:00:28;102289.59;;;8.94;100.00
20455;BME280;10386;54.314;10.022;2023-02-12T10:03:01;102354.94;;;8.85;100.00
20455;BME280;10386;54.314;10.022;2023-02-12T10:05:36;102360.75;;;8.98;100.00
20455;BME280;10386;54.314;10.022;2023-02-12T10:19:32;102359.69;;;9.02;100.00
20455;BME280;10386;54.314;10.022;2023-02-12T10:27:50;102366.75;;;9.27;100.00
20455;BME280;10386;54.314;10.022;2023-02-12T10:30:21;102384.25;;;9.19;100.00
20455;BME280;10386;54.314;10.022;2023-02-12T10:33:02;102373.00;;;9.29;100.00
20455;BME280;10386;54.314;10.022;2023-02-12T10:35:31;102391.75;;;9.34;100.00
20455;BME280;10386;54.314;10.022;2023-02-12T10:38:05;102396.22;;;9.35;100.00
20455;BME280;10386;54.314;10.022;2023-02-12T10:40:34;102396.97;;;9.40;100.00
20455;BME280;10386;54.314;10.022;2023-02-12T10:43:03;102415.97;;;9.38;100.00
20455;BME280;10386;54.314;10.022;2023-02-12T10:45:36;102420.44;;;9.39;100.00
20455;BME280;10386;54.314;10.022;2023-02-12T10:48:19;102420.03;;;9.50;100.00
20455;BME280;10386;54.314;10.022;2023-02-12T10:53:43;102421.28;;;9.62;100.00
20455;BME280;10386;54.314;10.022;2023-02-12T11:01:27;102448.44;;;9.61;100.00
20455;BME280;10386;54.314;10.022;2023-02-12T11:03:57;102447.69;;;9.79;100.00
20455;BME280;10386;54.314;10.022;2023-02-12T11:06:27;102459.94;;;9.67;100.00
20455;BME280;10386;54.314;10.022;2023-02-12T11:08:55;102471.06;;;9.81;100.00
20455;BME280;10386;54.314;10.022;2023-02-12T11:11:28;102479.22;;;9.81;100.00
20455;BME280;10386;54.314;10.022;2023-02-12T11:14:19;102483.38;;;9.90;100.00
20455;BME280;10386;54.314;10.022;2023-02-12T11:16:57;102474.75;;;10.02;100.00
20455;BME280;10386;54.314;10.022;2023-02-12T11:19:28;102483.50;;;9.87;100.00
20455;BME280;10386;54.314;10.022;2023-02-12T11:22:12;102493.69;;;9.82;100.00
20455;BME280;10386;54.314;10.022;2023-02-12T11:24:45;102496.69;;;9.74;100.00
20455;BME280;10386;54.314;10.022;2023-02-12T11:29:43;102499.03;;;10.05;100.00
20455;BME280;10386;54.314;10.022;2023-02-12T11:32:19;102492.59;;;10.07;100.00
20455;BME280;10386;54.314;10.022;2023-02-12T11:35:13;102499.47;;;10.16;100.00
20455;BME280;10386;54.314;10.022;2023-02-12T11:37:44;102518.31;;;9.97;100.00
20455;BME280;10386;54.314;10.022;2023-02-12T11:42:59;102531.66;;;9.82;100.00
20455;BME280;10386;54.314;10.022;2023-02-12T11:45:33;102532.81;;;9.96;100.00
20455;BME280;10386;54.314;10.022;2023-02-12T11:48:01;102526.19;;;10.05;100.00
20455;BME280;10386;54.314;10.022;2023-02-12T11:50:32;102529.13;;;9.99;100.00
20455;BME280;10386;54.314;10.022;2023-02-12T11:53:08;102533.72;;;9.97;100.00
20455;BME280;10386;54.314;10.022;2023-02-12T11:55:38;102537.84;;;10.07;100.00
20455;BME280;10386;54.314;10.022;2023-02-12T11:58:19;102528.53;;;10.12;100.00
20455;BME280;10386;54.314;10.022;2023-02-12T12:00:50;102538.84;;;10.04;100.00
20455;BME280;10386;54.314;10.022;2023-02-12T12:05:59;102545.66;;;9.93;100.00
20455;BME280;10386;54.314;10.022;2023-02-12T12:08:34;102542.16;;;9.89;100.00
20455;BME280;10386;54.314;10.022;2023-02-12T12:14:16;102487.09;;;9.87;100.00
20455;BME280;10386;54.314;10.022;2023-02-12T12:17:12;102493.84;;;9.99;100.00
20455;BME280;10386;54.314;10.022;2023-02-12T12:20:15;102490.19;;;10.00;100.00
20455;BME280;10386;54.314;10.022;2023-02-12T12:25:28;102482.22;;;9.95;100.00
20455;BME280;10386;54.314;10.022;2023-02-12T12:28:01;102480.59;;;9.91;100.00
20455;BME280;10386;54.314;10.022;2023-02-12T12:33:43;102481.19;;;9.78;100.00
20455;BME280;10386;54.314;10.022;2023-02-12T12:42:03;102481.13;;;10.01;100.00
20455;BME280;10386;54.314;10.022;2023-02-12T12:44:44;102486.78;;;9.95;100.00
20455;BME280;10386;54.314;10.022;2023-02-12T12:47:29;102502.38;;;9.68;100.00
20455;BME280;10386;54.314;10.022;2023-02-12T12:58:36;102492.69;;;9.40;100.00
20455;BME280;10386;54.314;10.022;2023-02-12T13:01:48;102496.19;;;9.44;100.00
20455;BME280;10386;54.314;10.022;2023-02-12T13:07:26;102491.88;;;9.38;100.00
20455;BME280;10386;54.314;10.022;2023-02-12T13:19:10;102482.28;;;9.30;100.00
20455;BME280;10386;54.314;10.022;2023-02-12T13:21:52;102479.09;;;9.42;100.00
20455;BME280;10386;54.314;10.022;2023-02-12T13:24:26;102482.88;;;9.38;100.00
20455;BME280;10386;54.314;10.022;2023-02-12T13:26:58;102479.22;;;9.39;100.00
20455;BME280;10386;54.314;10.022;2023-02-12T13:29:35;102482.22;;;9.31;100.00
20455;BME280;10386;54.314;10.022;2023-02-12T13:32:09;102480.00;;;9.19;100.00
20455;BME280;10386;54.314;10.022;2023-02-12T13:34:42;102479.63;;;9.28;100.00
20455;BME280;10386;54.314;10.022;2023-02-12T13:37:22;102486.16;;;9.23;100.00
20455;BME280;10386;54.314;10.022;2023-02-12T13:39:51;102486.28;;;9.20;100.00
20455;BME280;10386;54.314;10.022;2023-02-12T13:42:48;102481.69;;;9.22;100.00
20455;BME280;10386;54.314;10.022;2023-02-12T13:45:29;102480.88;;;9.20;100.00
20455;BME280;10386;54.314;10.022;2023-02-12T13:51:06;102486.53;;;9.14;100.00
20455;BME280;10386;54.314;10.022;2023-02-12T13:59:00;102491.31;;;9.07;100.00
20455;BME280;10386;54.314;10.022;2023-02-12T14:01:47;102485.94;;;9.06;100.00
20455;BME280;10386;54.314;10.022;2023-02-12T14:06:57;102480.88;;;9.20;100.00
20455;BME280;10386;54.314;10.022;2023-02-12T14:12:00;102481.81;;;9.19;100.00
20455;BME280;10386;54.314;10.022;2023-02-12T14:14:38;102480.28;;;9.12;100.00
20455;BME280;10386;54.314;10.022;2023-02-12T14:28:06;102493.97;;;8.86;100.00
20455;BME280;10386;54.314;10.022;2023-02-12T14:30:36;102503.75;;;8.90;100.00
20455;BME280;10386;54.314;10.022;2023-02-12T14:35:42;102500.91;;;8.93;100.00
20455;BME280;10386;54.314;10.022;2023-02-12T14:40:47;102498.03;;;8.97;100.00
20455;BME280;10386;54.314;10.022;2023-02-12T14:48:58;102499.72;;;8.77;100.00
20455;BME280;10386;54.314;10.022;2023-02-12T14:51:50;102505.53;;;8.66;100.00
20455;BME280;10386;54.314;10.022;2023-02-12T14:54:29;102499.97;;;8.71;100.00
20455;BME280;10386;54.314;10.022;2023-02-12T14:57:01;102498.06;;;8.73;100.00
20455;BME280;10386;54.314;10.022;2023-02-12T14:59:35;102499.97;;;8.71;100.00
20455;BME280;10386;54.314;10.022;2023-02-12T15:02:05;102505.63;;;8.63;100.00
20455;BME280;10386;54.314;10.022;2023-02-12T15:04:36;102509.59;;;8.55;100.00
20455;BME280;10386;54.314;10.022;2023-02-12T15:07:08;102513.84;;;8.62;100.00
20455;BME280;10386;54.314;10.022;2023-02-12T15:09:43;102515.94;;;8.54;100.00
20455;BME280;10386;54.314;10.022;2023-02-12T15:12:18;102513.22;;;8.54;100.00
20455;BME280;10386;54.314;10.022;2023-02-12T15:17:40;102527.91;;;8.47;100.00
20455;BME280;10386;54.314;10.022;2023-02-12T15:20:21;102534.31;;;8.44;100.00
20455;BME280;10386;54.314;10.022;2023-02-12T15:22:49;102534.13;;;8.49;100.00
20455;BME280;10386;54.314;10.022;2023-02-12T15:25:26;102547.97;;;8.41;100.00